RJSI(METAR)
02/17 19:00
METAR RJSI 171000Z VRB02KT 9999 FEW020 SCT050 BKN100 03/M01 Q1003
RMK 1CU020 4CU050 5AC100 A2963=
戻る
トップページへ戻る
IMOC Co,.Ltd.